Main page
METAR-TAF:

METAR-TAF

Airports :

Lábrea Airport

Lábrea, Amazonas, Brazil

latitude: 07-15-01S, longitude: 064-47-02W, elevation: 58 m

Current weather observation

The report was made 1 hour and 20 minutes ago, at 09:00 UTC
Wind 24 kt from the East
Temperature 24°C
Humidity 74%
Pressure 1015 hPa
Visibility 10 km or more

METAR: SBLB 140900Z AUTO 08024KT 9999 NCD 24/19 Q1015 W26/S5

Time: 06:20 (10:20 UTC)


TAF: missing

Weather observations and forecasts of more than 4000 airports (METAR and TAF reports).

The available stations are represented by yellow and red dots on the map.

Hover mouse over dot to see the name of the station.

Then click to see weather observations and forecasts.

To change the map : click on the green buttons with a black cross to zoom in, on the green button with a dash to zoom out, or on the green arrows for adjacent maps.


METAR-TAF: